sensor_id;sensor_type;location;lat;lon;timestamp;P1;durP1;ratioP1;P2;durP2;ratioP2
74415;SDS011;62850;42.428;25.618;2022-11-11T00:00:22;35.58;;;18.55;;
74415;SDS011;62850;42.428;25.618;2022-11-11T00:02:48;35.30;;;18.92;;
74415;SDS011;62850;42.428;25.618;2022-11-11T00:05:15;37.05;;;18.95;;
74415;SDS011;62850;42.428;25.618;2022-11-11T00:07:41;37.38;;;19.15;;
74415;SDS011;62850;42.428;25.618;2022-11-11T00:10:08;37.13;;;19.25;;
74415;SDS011;62850;42.428;25.618;2022-11-11T00:12:34;38.55;;;18.80;;
74415;SDS011;62850;42.428;25.618;2022-11-11T00:15:00;38.80;;;20.45;;
74415;SDS011;62850;42.428;25.618;2022-11-11T00:17:25;36.83;;;19.88;;
74415;SDS011;62850;42.428;25.618;2022-11-11T00:20:10;38.30;;;20.38;;
74415;SDS011;62850;42.428;25.618;2022-11-11T00:22:54;37.80;;;20.10;;
74415;SDS011;62850;42.428;25.618;2022-11-11T00:25:39;34.00;;;19.40;;
74415;SDS011;62850;42.428;25.618;2022-11-11T00:28:05;36.47;;;20.02;;
74415;SDS011;62850;42.428;25.618;2022-11-11T00:30:30;40.83;;;20.90;;
74415;SDS011;62850;42.428;25.618;2022-11-11T00:32:56;39.17;;;20.60;;
74415;SDS011;62850;42.428;25.618;2022-11-11T00:35:21;40.75;;;20.75;;
74415;SDS011;62850;42.428;25.618;2022-11-11T00:38:09;39.70;;;21.55;;
74415;SDS011;62850;42.428;25.618;2022-11-11T00:40:57;38.67;;;21.17;;
74415;SDS011;62850;42.428;25.618;2022-11-11T00:43:23;42.40;;;21.58;;
74415;SDS011;62850;42.428;25.618;2022-11-11T00:45:48;40.08;;;20.90;;
74415;SDS011;62850;42.428;25.618;2022-11-11T00:48:14;46.50;;;22.38;;
74415;SDS011;62850;42.428;25.618;2022-11-11T00:50:58;42.75;;;20.77;;
74415;SDS011;62850;42.428;25.618;2022-11-11T00:53:25;40.75;;;21.40;;
74415;SDS011;62850;42.428;25.618;2022-11-11T00:55:52;41.38;;;22.55;;
74415;SDS011;62850;42.428;25.618;2022-11-11T00:58:18;43.58;;;23.08;;
74415;SDS011;62850;42.428;25.618;2022-11-11T01:00:43;45.47;;;23.55;;
74415;SDS011;62850;42.428;25.618;2022-11-11T01:03:09;40.63;;;21.85;;
74415;SDS011;62850;42.428;25.618;2022-11-11T01:05:38;41.50;;;23.10;;
74415;SDS011;62850;42.428;25.618;2022-11-11T01:08:04;44.00;;;23.00;;
74415;SDS011;62850;42.428;25.618;2022-11-11T01:10:29;47.70;;;23.58;;
74415;SDS011;62850;42.428;25.618;2022-11-11T01:13:12;39.28;;;22.77;;
74415;SDS011;62850;42.428;25.618;2022-11-11T01:15:44;45.17;;;21.77;;
74415;SDS011;62850;42.428;25.618;2022-11-11T01:18:13;41.50;;;23.13;;
74415;SDS011;62850;42.428;25.618;2022-11-11T01:20:40;40.88;;;22.30;;
74415;SDS011;62850;42.428;25.618;2022-11-11T01:23:06;41.25;;;21.50;;
74415;SDS011;62850;42.428;25.618;2022-11-11T01:25:33;42.38;;;22.88;;
74415;SDS011;62850;42.428;25.618;2022-11-11T01:28:03;44.95;;;21.30;;
74415;SDS011;62850;42.428;25.618;2022-11-11T01:30:30;37.83;;;21.45;;
74415;SDS011;62850;42.428;25.618;2022-11-11T01:32:57;45.13;;;21.25;;
74415;SDS011;62850;42.428;25.618;2022-11-11T01:35:22;40.13;;;21.02;;
74415;SDS011;62850;42.428;25.618;2022-11-11T01:37:48;42.53;;;19.95;;
74415;SDS011;62850;42.428;25.618;2022-11-11T01:40:14;42.10;;;20.92;;
74415;SDS011;62850;42.428;25.618;2022-11-11T01:42:49;39.08;;;20.17;;
74415;SDS011;62850;42.428;25.618;2022-11-11T01:48:00;36.97;;;19.08;;
74415;SDS011;62850;42.428;25.618;2022-11-11T01:50:44;37.83;;;19.17;;
74415;SDS011;62850;42.428;25.618;2022-11-11T01:53:10;40.70;;;20.10;;
74415;SDS011;62850;42.428;25.618;2022-11-11T01:55:35;40.90;;;19.73;;
74415;SDS011;62850;42.428;25.618;2022-11-11T01:58:02;37.97;;;20.92;;
74415;SDS011;62850;42.428;25.618;2022-11-11T02:00:33;42.17;;;20.63;;
74415;SDS011;62850;42.428;25.618;2022-11-11T02:03:00;46.22;;;20.48;;
74415;SDS011;62850;42.428;25.618;2022-11-11T02:05:29;42.50;;;21.33;;
74415;SDS011;62850;42.428;25.618;2022-11-11T02:08:20;42.28;;;21.27;;
74415;SDS011;62850;42.428;25.618;2022-11-11T02:11:14;42.35;;;22.02;;
74415;SDS011;62850;42.428;25.618;2022-11-11T02:14:02;36.63;;;20.83;;
74415;SDS011;62850;42.428;25.618;2022-11-11T02:16:46;41.67;;;20.63;;
74415;SDS011;62850;42.428;25.618;2022-11-11T02:19:11;35.80;;;19.70;;
74415;SDS011;62850;42.428;25.618;2022-11-11T02:21:41;42.42;;;20.35;;
74415;SDS011;62850;42.428;25.618;2022-11-11T02:24:16;42.80;;;20.27;;
74415;SDS011;62850;42.428;25.618;2022-11-11T02:26:44;36.22;;;19.52;;
74415;SDS011;62850;42.428;25.618;2022-11-11T02:29:12;41.10;;;20.42;;
74415;SDS011;62850;42.428;25.618;2022-11-11T02:31:41;39.38;;;20.10;;
74415;SDS011;62850;42.428;25.618;2022-11-11T02:34:06;40.85;;;20.23;;
74415;SDS011;62850;42.428;25.618;2022-11-11T02:36:32;35.08;;;19.63;;
74415;SDS011;62850;42.428;25.618;2022-11-11T02:38:58;39.63;;;20.20;;
74415;SDS011;62850;42.428;25.618;2022-11-11T02:41:24;39.78;;;19.02;;
74415;SDS011;62850;42.428;25.618;2022-11-11T02:44:08;41.25;;;20.05;;
74415;SDS011;62850;42.428;25.618;2022-11-11T02:46:33;40.70;;;20.55;;
74415;SDS011;62850;42.428;25.618;2022-11-11T02:48:59;41.28;;;19.95;;
74415;SDS011;62850;42.428;25.618;2022-11-11T02:51:24;35.55;;;18.80;;
74415;SDS011;62850;42.428;25.618;2022-11-11T02:53:50;36.63;;;20.08;;
74415;SDS011;62850;42.428;25.618;2022-11-11T02:56:15;36.67;;;19.95;;
74415;SDS011;62850;42.428;25.618;2022-11-11T02:59:01;41.17;;;19.88;;
74415;SDS011;62850;42.428;25.618;2022-11-11T03:01:26;41.08;;;20.92;;
74415;SDS011;62850;42.428;25.618;2022-11-11T03:03:52;42.90;;;20.27;;
74415;SDS011;62850;42.428;25.618;2022-11-11T03:06:17;40.38;;;20.17;;
74415;SDS011;62850;42.428;25.618;2022-11-11T03:08:43;38.65;;;21.10;;
74415;SDS011;62850;42.428;25.618;2022-11-11T03:11:08;42.28;;;20.42;;
74415;SDS011;62850;42.428;25.618;2022-11-11T03:13:34;39.53;;;20.58;;
74415;SDS011;62850;42.428;25.618;2022-11-11T03:15:59;40.58;;;19.90;;
74415;SDS011;62850;42.428;25.618;2022-11-11T03:18:25;40.72;;;20.50;;
74415;SDS011;62850;42.428;25.618;2022-11-11T03:20:50;40.22;;;21.33;;
74415;SDS011;62850;42.428;25.618;2022-11-11T03:23:31;36.00;;;19.90;;
74415;SDS011;62850;42.428;25.618;2022-11-11T03:25:56;35.78;;;20.05;;
74415;SDS011;62850;42.428;25.618;2022-11-11T03:28:22;40.35;;;20.85;;
74415;SDS011;62850;42.428;25.618;2022-11-11T03:30:50;37.75;;;20.33;;
74415;SDS011;62850;42.428;25.618;2022-11-11T03:33:16;48.70;;;21.30;;
74415;SDS011;62850;42.428;25.618;2022-11-11T03:35:43;40.63;;;20.73;;
74415;SDS011;62850;42.428;25.618;2022-11-11T03:38:11;41.28;;;21.25;;
74415;SDS011;62850;42.428;25.618;2022-11-11T03:40:47;46.72;;;22.83;;
74415;SDS011;62850;42.428;25.618;2022-11-11T03:43:14;38.85;;;20.88;;
74415;SDS011;62850;42.428;25.618;2022-11-11T03:45:42;43.55;;;22.90;;
74415;SDS011;62850;42.428;25.618;2022-11-11T03:48:08;41.70;;;21.08;;
74415;SDS011;62850;42.428;25.618;2022-11-11T03:50:34;37.97;;;19.77;;
74415;SDS011;62850;42.428;25.618;2022-11-11T03:52:59;36.15;;;20.02;;
74415;SDS011;62850;42.428;25.618;2022-11-11T03:55:26;40.97;;;19.65;;
74415;SDS011;62850;42.428;25.618;2022-11-11T03:57:51;41.47;;;20.85;;
74415;SDS011;62850;42.428;25.618;2022-11-11T04:00:21;40.15;;;20.45;;
74415;SDS011;62850;42.428;25.618;2022-11-11T04:02:48;40.42;;;19.27;;
74415;SDS011;62850;42.428;25.618;2022-11-11T04:05:33;38.38;;;19.92;;
74415;SDS011;62850;42.428;25.618;2022-11-11T04:08:17;41.55;;;21.30;;
74415;SDS011;62850;42.428;25.618;2022-11-11T04:11:04;37.13;;;19.70;;
74415;SDS011;62850;42.428;25.618;2022-11-11T04:13:33;36.72;;;19.55;;
74415;SDS011;62850;42.428;25.618;2022-11-11T04:16:18;36.85;;;19.65;;
74415;SDS011;62850;42.428;25.618;2022-11-11T04:18:44;37.80;;;19.38;;
74415;SDS011;62850;42.428;25.618;2022-11-11T04:21:28;39.00;;;21.08;;
74415;SDS011;62850;42.428;25.618;2022-11-11T04:24:09;38.30;;;19.25;;
74415;SDS011;62850;42.428;25.618;2022-11-11T04:26:54;36.17;;;20.25;;
74415;SDS011;62850;42.428;25.618;2022-11-11T04:29:20;40.63;;;21.15;;
74415;SDS011;62850;42.428;25.618;2022-11-11T04:32:02;39.45;;;20.95;;
74415;SDS011;62850;42.428;25.618;2022-11-11T04:34:51;42.85;;;20.55;;
74415;SDS011;62850;42.428;25.618;2022-11-11T04:37:18;42.63;;;21.52;;
74415;SDS011;62850;42.428;25.618;2022-11-11T04:39:44;46.95;;;22.83;;
74415;SDS011;62850;42.428;25.618;2022-11-11T04:42:29;38.15;;;20.10;;
74415;SDS011;62850;42.428;25.618;2022-11-11T04:44:56;44.03;;;21.23;;
74415;SDS011;62850;42.428;25.618;2022-11-11T04:47:57;43.05;;;21.88;;
74415;SDS011;62850;42.428;25.618;2022-11-11T04:50:24;40.80;;;22.13;;
74415;SDS011;62850;42.428;25.618;2022-11-11T04:52:54;45.63;;;23.35;;
74415;SDS011;62850;42.428;25.618;2022-11-11T04:55:20;44.53;;;22.45;;
74415;SDS011;62850;42.428;25.618;2022-11-11T04:58:04;37.97;;;20.02;;
74415;SDS011;62850;42.428;25.618;2022-11-11T05:00:30;44.72;;;22.63;;
74415;SDS011;62850;42.428;25.618;2022-11-11T05:02:55;47.20;;;23.02;;
74415;SDS011;62850;42.428;25.618;2022-11-11T05:05:49;44.75;;;21.35;;
74415;SDS011;62850;42.428;25.618;2022-11-11T05:08:41;40.58;;;21.35;;
74415;SDS011;62850;42.428;25.618;2022-11-11T05:11:21;38.35;;;20.27;;
74415;SDS011;62850;42.428;25.618;2022-11-11T05:13:49;44.78;;;22.15;;
74415;SDS011;62850;42.428;25.618;2022-11-11T05:16:36;38.72;;;21.38;;
74415;SDS011;62850;42.428;25.618;2022-11-11T05:19:28;42.63;;;20.90;;
74415;SDS011;62850;42.428;25.618;2022-11-11T05:22:14;43.03;;;21.27;;
74415;SDS011;62850;42.428;25.618;2022-11-11T05:24:43;47.28;;;22.85;;
74415;SDS011;62850;42.428;25.618;2022-11-11T05:27:27;43.90;;;22.55;;
74415;SDS011;62850;42.428;25.618;2022-11-11T05:29:53;41.63;;;21.98;;
74415;SDS011;62850;42.428;25.618;2022-11-11T05:32:19;51.75;;;25.58;;
74415;SDS011;62850;42.428;25.618;2022-11-11T05:34:45;49.40;;;24.60;;
74415;SDS011;62850;42.428;25.618;2022-11-11T05:37:11;51.30;;;25.90;;
74415;SDS011;62850;42.428;25.618;2022-11-11T05:39:37;50.33;;;26.35;;
74415;SDS011;62850;42.428;25.618;2022-11-11T05:42:02;51.17;;;26.25;;
74415;SDS011;62850;42.428;25.618;2022-11-11T05:44:28;54.05;;;28.05;;
74415;SDS011;62850;42.428;25.618;2022-11-11T05:46:54;55.78;;;29.27;;
74415;SDS011;62850;42.428;25.618;2022-11-11T05:49:20;50.97;;;28.23;;
74415;SDS011;62850;42.428;25.618;2022-11-11T05:51:45;56.22;;;28.40;;
74415;SDS011;62850;42.428;25.618;2022-11-11T05:54:12;56.72;;;28.08;;
74415;SDS011;62850;42.428;25.618;2022-11-11T05:56:38;60.60;;;28.23;;
74415;SDS011;62850;42.428;25.618;2022-11-11T05:59:05;56.03;;;27.52;;
74415;SDS011;62850;42.428;25.618;2022-11-11T06:01:31;49.95;;;24.30;;
74415;SDS011;62850;42.428;25.618;2022-11-11T06:03:57;45.97;;;23.52;;
74415;SDS011;62850;42.428;25.618;2022-11-11T06:06:23;45.67;;;22.65;;
74415;SDS011;62850;42.428;25.618;2022-11-11T06:08:48;46.25;;;23.17;;
74415;SDS011;62850;42.428;25.618;2022-11-11T06:11:14;47.53;;;23.30;;
74415;SDS011;62850;42.428;25.618;2022-11-11T06:13:39;48.60;;;27.33;;
74415;SDS011;62850;42.428;25.618;2022-11-11T06:16:05;40.28;;;22.02;;
74415;SDS011;62850;42.428;25.618;2022-11-11T06:18:31;46.33;;;22.40;;
74415;SDS011;62850;42.428;25.618;2022-11-11T06:20:57;45.30;;;23.45;;
74415;SDS011;62850;42.428;25.618;2022-11-11T06:23:23;39.58;;;21.17;;
74415;SDS011;62850;42.428;25.618;2022-11-11T06:25:51;36.90;;;20.83;;
74415;SDS011;62850;42.428;25.618;2022-11-11T06:28:35;45.58;;;22.20;;
74415;SDS011;62850;42.428;25.618;2022-11-11T06:31:01;43.47;;;23.05;;
74415;SDS011;62850;42.428;25.618;2022-11-11T06:33:27;53.28;;;25.20;;
74415;SDS011;62850;42.428;25.618;2022-11-11T06:35:52;53.97;;;23.85;;
74415;SDS011;62850;42.428;25.618;2022-11-11T06:38:18;54.63;;;25.27;;
74415;SDS011;62850;42.428;25.618;2022-11-11T06:40:44;52.20;;;25.88;;
74415;SDS011;62850;42.428;25.618;2022-11-11T06:43:10;48.90;;;25.88;;
74415;SDS011;62850;42.428;25.618;2022-11-11T06:45:35;53.10;;;26.63;;
74415;SDS011;62850;42.428;25.618;2022-11-11T06:48:02;53.00;;;26.98;;
74415;SDS011;62850;42.428;25.618;2022-11-11T06:50:28;52.45;;;27.42;;
74415;SDS011;62850;42.428;25.618;2022-11-11T06:52:54;55.10;;;27.48;;
74415;SDS011;62850;42.428;25.618;2022-11-11T06:55:19;51.70;;;27.77;;
74415;SDS011;62850;42.428;25.618;2022-11-11T06:57:45;60.30;;;28.90;;
74415;SDS011;62850;42.428;25.618;2022-11-11T07:00:14;49.72;;;28.00;;
74415;SDS011;62850;42.428;25.618;2022-11-11T07:02:39;57.45;;;29.95;;
74415;SDS011;62850;42.428;25.618;2022-11-11T07:05:05;51.95;;;24.88;;
74415;SDS011;62850;42.428;25.618;2022-11-11T07:07:31;53.90;;;26.88;;
74415;SDS011;62850;42.428;25.618;2022-11-11T07:09:57;47.58;;;23.83;;
74415;SDS011;62850;42.428;25.618;2022-11-11T07:12:22;51.92;;;24.60;;
74415;SDS011;62850;42.428;25.618;2022-11-11T07:14:51;52.80;;;23.15;;
74415;SDS011;62850;42.428;25.618;2022-11-11T07:17:17;51.30;;;22.00;;
74415;SDS011;62850;42.428;25.618;2022-11-11T07:19:42;55.58;;;23.88;;
74415;SDS011;62850;42.428;25.618;2022-11-11T07:22:08;48.35;;;23.60;;
74415;SDS011;62850;42.428;25.618;2022-11-11T07:24:36;55.60;;;23.83;;
74415;SDS011;62850;42.428;25.618;2022-11-11T07:27:01;42.28;;;22.60;;
74415;SDS011;62850;42.428;25.618;2022-11-11T07:29:30;53.35;;;23.58;;
74415;SDS011;62850;42.428;25.618;2022-11-11T07:31:55;50.17;;;23.33;;
74415;SDS011;62850;42.428;25.618;2022-11-11T07:34:21;50.00;;;26.48;;
74415;SDS011;62850;42.428;25.618;2022-11-11T07:36:52;54.47;;;26.35;;
74415;SDS011;62850;42.428;25.618;2022-11-11T07:39:17;57.97;;;29.15;;
74415;SDS011;62850;42.428;25.618;2022-11-11T07:41:43;58.42;;;27.50;;
74415;SDS011;62850;42.428;25.618;2022-11-11T07:44:08;54.60;;;26.50;;
74415;SDS011;62850;42.428;25.618;2022-11-11T07:46:34;54.05;;;27.23;;
74415;SDS011;62850;42.428;25.618;2022-11-11T07:48:59;53.30;;;28.50;;
74415;SDS011;62850;42.428;25.618;2022-11-11T07:51:25;52.45;;;28.15;;
74415;SDS011;62850;42.428;25.618;2022-11-11T07:53:50;65.43;;;27.83;;
74415;SDS011;62850;42.428;25.618;2022-11-11T07:56:16;57.53;;;26.90;;
74415;SDS011;62850;42.428;25.618;2022-11-11T07:58:42;64.10;;;29.25;;
74415;SDS011;62850;42.428;25.618;2022-11-11T08:01:07;60.05;;;28.23;;
74415;SDS011;62850;42.428;25.618;2022-11-11T08:03:33;60.63;;;29.67;;
74415;SDS011;62850;42.428;25.618;2022-11-11T08:06:00;73.68;;;31.10;;
74415;SDS011;62850;42.428;25.618;2022-11-11T08:08:28;62.97;;;31.58;;
74415;SDS011;62850;42.428;25.618;2022-11-11T08:10:54;68.38;;;33.08;;
74415;SDS011;62850;42.428;25.618;2022-11-11T08:13:20;63.47;;;31.83;;
74415;SDS011;62850;42.428;25.618;2022-11-11T08:16:04;78.47;;;34.05;;
74415;SDS011;62850;42.428;25.618;2022-11-11T08:18:31;75.70;;;35.80;;
74415;SDS011;62850;42.428;25.618;2022-11-11T08:20:57;74.80;;;35.15;;
74415;SDS011;62850;42.428;25.618;2022-11-11T08:23:23;78.55;;;34.17;;
74415;SDS011;62850;42.428;25.618;2022-11-11T08:25:57;77.72;;;37.92;;
74415;SDS011;62850;42.428;25.618;2022-11-11T08:28:26;82.07;;;38.15;;
74415;SDS011;62850;42.428;25.618;2022-11-11T08:30:53;74.95;;;36.40;;
74415;SDS011;62850;42.428;25.618;2022-11-11T08:33:18;74.97;;;34.83;;
74415;SDS011;62850;42.428;25.618;2022-11-11T08:35:44;75.63;;;36.58;;
74415;SDS011;62850;42.428;25.618;2022-11-11T08:38:10;83.95;;;36.13;;
74415;SDS011;62850;42.428;25.618;2022-11-11T08:40:37;78.35;;;37.20;;
74415;SDS011;62850;42.428;25.618;2022-11-11T08:43:02;88.78;;;37.17;;
74415;SDS011;62850;42.428;25.618;2022-11-11T08:45:28;83.95;;;37.75;;
74415;SDS011;62850;42.428;25.618;2022-11-11T08:47:53;87.38;;;36.97;;
74415;SDS011;62850;42.428;25.618;2022-11-11T08:50:19;81.38;;;35.22;;
74415;SDS011;62850;42.428;25.618;2022-11-11T08:52:48;85.05;;;36.08;;
74415;SDS011;62850;42.428;25.618;2022-11-11T08:55:14;80.38;;;36.67;;
74415;SDS011;62850;42.428;25.618;2022-11-11T08:57:41;79.68;;;36.35;;
74415;SDS011;62850;42.428;25.618;2022-11-11T09:00:07;79.43;;;36.58;;
74415;SDS011;62850;42.428;25.618;2022-11-11T09:02:34;82.05;;;36.25;;
74415;SDS011;62850;42.428;25.618;2022-11-11T09:04:59;79.25;;;37.95;;
74415;SDS011;62850;42.428;25.618;2022-11-11T09:07:25;73.30;;;36.65;;
74415;SDS011;62850;42.428;25.618;2022-11-11T09:09:51;75.78;;;37.35;;
74415;SDS011;62850;42.428;25.618;2022-11-11T09:12:17;76.88;;;37.45;;
74415;SDS011;62850;42.428;25.618;2022-11-11T09:14:43;74.28;;;36.90;;
74415;SDS011;62850;42.428;25.618;2022-11-11T09:17:08;64.15;;;35.65;;
74415;SDS011;62850;42.428;25.618;2022-11-11T09:19:34;75.13;;;37.78;;
74415;SDS011;62850;42.428;25.618;2022-11-11T09:21:59;78.20;;;37.60;;
74415;SDS011;62850;42.428;25.618;2022-11-11T09:24:25;68.32;;;37.10;;
74415;SDS011;62850;42.428;25.618;2022-11-11T09:26:51;68.43;;;36.15;;
74415;SDS011;62850;42.428;25.618;2022-11-11T09:29:17;66.93;;;36.13;;
74415;SDS011;62850;42.428;25.618;2022-11-11T09:31:43;65.93;;;35.45;;
74415;SDS011;62850;42.428;25.618;2022-11-11T09:34:09;81.93;;;35.53;;
74415;SDS011;62850;42.428;25.618;2022-11-11T09:36:35;62.63;;;31.98;;
74415;SDS011;62850;42.428;25.618;2022-11-11T09:39:00;64.95;;;30.65;;
74415;SDS011;62850;42.428;25.618;2022-11-11T09:44:00;63.70;;;30.45;;
74415;SDS011;62850;42.428;25.618;2022-11-11T09:49:37;63.03;;;29.42;;
74415;SDS011;62850;42.428;25.618;2022-11-11T09:52:18;66.15;;;33.20;;
74415;SDS011;62850;42.428;25.618;2022-11-11T09:54:49;69.47;;;30.70;;
74415;SDS011;62850;42.428;25.618;2022-11-11T10:00:02;62.60;;;30.45;;
74415;SDS011;62850;42.428;25.618;2022-11-11T10:02:38;61.15;;;30.42;;
74415;SDS011;62850;42.428;25.618;2022-11-11T10:05:10;59.80;;;30.00;;
74415;SDS011;62850;42.428;25.618;2022-11-11T10:07:56;53.22;;;28.08;;
74415;SDS011;62850;42.428;25.618;2022-11-11T10:16:01;50.50;;;27.38;;
74415;SDS011;62850;42.428;25.618;2022-11-11T10:21:22;57.70;;;27.98;;
74415;SDS011;62850;42.428;25.618;2022-11-11T10:23:54;56.10;;;28.30;;
74415;SDS011;62850;42.428;25.618;2022-11-11T10:26:30;58.10;;;29.70;;
74415;SDS011;62850;42.428;25.618;2022-11-11T10:29:04;60.22;;;30.23;;
74415;SDS011;62850;42.428;25.618;2022-11-11T10:31:34;68.40;;;30.13;;
74415;SDS011;62850;42.428;25.618;2022-11-11T10:34:10;71.25;;;31.08;;
74415;SDS011;62850;42.428;25.618;2022-11-11T10:36:41;66.05;;;29.67;;
74415;SDS011;62850;42.428;25.618;2022-11-11T10:39:09;54.03;;;28.70;;
74415;SDS011;62850;42.428;25.618;2022-11-11T10:41:39;61.63;;;28.45;;
74415;SDS011;62850;42.428;25.618;2022-11-11T10:44:20;57.15;;;28.70;;
74415;SDS011;62850;42.428;25.618;2022-11-11T10:46:52;54.45;;;29.48;;
74415;SDS011;62850;42.428;25.618;2022-11-11T10:49:26;60.53;;;29.15;;
74415;SDS011;62850;42.428;25.618;2022-11-11T10:52:01;60.58;;;29.08;;
74415;SDS011;62850;42.428;25.618;2022-11-11T10:54:46;59.40;;;29.40;;
74415;SDS011;62850;42.428;25.618;2022-11-11T10:57:57;62.53;;;29.33;;
74415;SDS011;62850;42.428;25.618;2022-11-11T11:02:48;51.55;;;27.38;;
74415;SDS011;62850;42.428;25.618;2022-11-11T11:09:00;22.63;;;10.77;;
74415;SDS011;62850;42.428;25.618;2022-11-11T11:14:16;12.13;;;4.88;;
74415;SDS011;62850;42.428;25.618;2022-11-11T11:16:47;4.95;;;2.30;;
74415;SDS011;62850;42.428;25.618;2022-11-11T11:19:20;5.40;;;2.40;;
74415;SDS011;62850;42.428;25.618;2022-11-11T11:21:56;5.22;;;2.42;;
74415;SDS011;62850;42.428;25.618;2022-11-11T11:26:56;6.22;;;3.00;;
74415;SDS011;62850;42.428;25.618;2022-11-11T11:31:55;8.60;;;2.65;;
74415;SDS011;62850;42.428;25.618;2022-11-11T11:37:15;6.47;;;2.75;;
74415;SDS011;62850;42.428;25.618;2022-11-11T11:39:42;5.82;;;2.88;;
74415;SDS011;62850;42.428;25.618;2022-11-11T11:42:08;8.05;;;3.00;;
74415;SDS011;62850;42.428;25.618;2022-11-11T11:44:51;6.50;;;3.00;;
74415;SDS011;62850;42.428;25.618;2022-11-11T11:47:29;5.07;;;2.42;;
74415;SDS011;62850;42.428;25.618;2022-11-11T11:52:46;4.55;;;2.30;;
74415;SDS011;62850;42.428;25.618;2022-11-11T11:55:39;5.60;;;2.50;;
74415;SDS011;62850;42.428;25.618;2022-11-11T12:01:14;8.52;;;2.35;;
74415;SDS011;62850;42.428;25.618;2022-11-11T12:14:47;4.38;;;2.15;;
74415;SDS011;62850;42.428;25.618;2022-11-11T12:20:13;5.53;;;2.10;;
74415;SDS011;62850;42.428;25.618;2022-11-11T12:25:16;4.90;;;2.13;;
74415;SDS011;62850;42.428;25.618;2022-11-11T12:28:36;3.88;;;1.77;;
74415;SDS011;62850;42.428;25.618;2022-11-11T12:30:39;4.13;;;1.83;;
74415;SDS011;62850;42.428;25.618;2022-11-11T12:39:44;4.20;;;2.10;;
74415;SDS011;62850;42.428;25.618;2022-11-11T12:44:55;5.57;;;2.60;;
74415;SDS011;62850;42.428;25.618;2022-11-11T12:47:48;5.10;;;2.72;;
74415;SDS011;62850;42.428;25.618;2022-11-11T13:14:28;6.38;;;3.05;;
74415;SDS011;62850;42.428;25.618;2022-11-11T13:17:11;5.45;;;2.55;;
74415;SDS011;62850;42.428;25.618;2022-11-11T13:19:42;5.38;;;2.72;;
74415;SDS011;62850;42.428;25.618;2022-11-11T13:22:14;4.53;;;2.40;;
74415;SDS011;62850;42.428;25.618;2022-11-11T13:30:06;5.78;;;2.80;;
74415;SDS011;62850;42.428;25.618;2022-11-11T13:32:40;5.10;;;2.67;;
74415;SDS011;62850;42.428;25.618;2022-11-11T13:35:19;5.50;;;2.88;;
74415;SDS011;62850;42.428;25.618;2022-11-11T13:37:48;6.00;;;3.00;;
74415;SDS011;62850;42.428;25.618;2022-11-11T13:43:14;8.13;;;2.00;;
74415;SDS011;62850;42.428;25.618;2022-11-11T13:45:42;6.53;;;2.30;;
74415;SDS011;62850;42.428;25.618;2022-11-11T13:48:23;4.97;;;2.25;;
74415;SDS011;62850;42.428;25.618;2022-11-11T13:51:11;4.75;;;2.30;;
74415;SDS011;62850;42.428;25.618;2022-11-11T13:53:38;4.32;;;2.00;;
74415;SDS011;62850;42.428;25.618;2022-11-11T13:56:07;3.60;;;1.95;;
74415;SDS011;62850;42.428;25.618;2022-11-11T13:58:35;3.83;;;2.05;;
74415;SDS011;62850;42.428;25.618;2022-11-11T14:01:03;3.42;;;1.80;;
74415;SDS011;62850;42.428;25.618;2022-11-11T14:03:33;5.70;;;1.90;;
74415;SDS011;62850;42.428;25.618;2022-11-11T14:24:43;4.30;;;2.17;;
74415;SDS011;62850;42.428;25.618;2022-11-11T14:29:45;4.13;;;2.03;;
74415;SDS011;62850;42.428;25.618;2022-11-11T14:37:49;3.78;;;1.83;;
74415;SDS011;62850;42.428;25.618;2022-11-11T14:40:25;3.70;;;2.00;;
74415;SDS011;62850;42.428;25.618;2022-11-11T14:42:52;4.47;;;1.98;;
74415;SDS011;62850;42.428;25.618;2022-11-11T14:47:53;4.22;;;2.05;;
74415;SDS011;62850;42.428;25.618;2022-11-11T14:52:54;5.55;;;2.20;;
74415;SDS011;62850;42.428;25.618;2022-11-11T14:55:29;4.57;;;1.92;;
74415;SDS011;62850;42.428;25.618;2022-11-11T14:57:59;4.45;;;2.13;;
74415;SDS011;62850;42.428;25.618;2022-11-11T15:00:32;8.63;;;2.15;;
74415;SDS011;62850;42.428;25.618;2022-11-11T15:03:23;4.35;;;2.10;;
74415;SDS011;62850;42.428;25.618;2022-11-11T15:05:57;4.03;;;2.15;;
74415;SDS011;62850;42.428;25.618;2022-11-11T15:08:30;3.72;;;1.77;;
74415;SDS011;62850;42.428;25.618;2022-11-11T15:16:33;4.35;;;2.30;;
74415;SDS011;62850;42.428;25.618;2022-11-11T15:22:09;4.10;;;1.70;;
74415;SDS011;62850;42.428;25.618;2022-11-11T15:24:41;3.78;;;1.90;;
74415;SDS011;62850;42.428;25.618;2022-11-11T15:27:29;4.03;;;1.92;;
74415;SDS011;62850;42.428;25.618;2022-11-11T15:30:15;3.92;;;1.90;;
74415;SDS011;62850;42.428;25.618;2022-11-11T15:38:19;5.70;;;2.00;;
74415;SDS011;62850;42.428;25.618;2022-11-11T15:40:49;4.63;;;2.00;;
74415;SDS011;62850;42.428;25.618;2022-11-11T15:43:22;3.40;;;1.65;;
74415;SDS011;62850;42.428;25.618;2022-11-11T15:45:52;3.55;;;1.60;;
74415;SDS011;62850;42.428;25.618;2022-11-11T15:48:21;3.67;;;1.75;;
74415;SDS011;62850;42.428;25.618;2022-11-11T15:50:48;4.22;;;1.88;;
74415;SDS011;62850;42.428;25.618;2022-11-11T15:53:19;3.55;;;2.00;;
74415;SDS011;62850;42.428;25.618;2022-11-11T15:55:56;4.35;;;2.10;;
74415;SDS011;62850;42.428;25.618;2022-11-11T15:58:25;4.00;;;1.92;;
74415;SDS011;62850;42.428;25.618;2022-11-11T16:00:51;3.70;;;1.80;;
74415;SDS011;62850;42.428;25.618;2022-11-11T16:03:19;3.60;;;1.90;;
74415;SDS011;62850;42.428;25.618;2022-11-11T16:06:09;3.85;;;1.80;;
74415;SDS011;62850;42.428;25.618;2022-11-11T16:08:36;4.80;;;1.77;;
74415;SDS011;62850;42.428;25.618;2022-11-11T16:11:05;3.63;;;1.90;;
74415;SDS011;62850;42.428;25.618;2022-11-11T16:13:36;2.92;;;1.33;;
74415;SDS011;62850;42.428;25.618;2022-11-11T16:16:11;3.63;;;1.85;;
74415;SDS011;62850;42.428;25.618;2022-11-11T16:21:10;3.83;;;1.70;;
74415;SDS011;62850;42.428;25.618;2022-11-11T16:23:37;3.75;;;1.50;;
74415;SDS011;62850;42.428;25.618;2022-11-11T16:26:03;3.42;;;1.27;;
74415;SDS011;62850;42.428;25.618;2022-11-11T16:28:40;2.92;;;1.23;;
74415;SDS011;62850;42.428;25.618;2022-11-11T16:31:28;2.75;;;1.27;;
74415;SDS011;62850;42.428;25.618;2022-11-11T16:34:00;3.85;;;1.45;;
74415;SDS011;62850;42.428;25.618;2022-11-11T16:37:02;2.80;;;1.20;;
74415;SDS011;62850;42.428;25.618;2022-11-11T16:39:29;3.08;;;1.50;;
74415;SDS011;62850;42.428;25.618;2022-11-11T16:41:55;2.97;;;1.35;;
74415;SDS011;62850;42.428;25.618;2022-11-11T16:47:05;3.05;;;1.40;;
74415;SDS011;62850;42.428;25.618;2022-11-11T16:49:59;3.83;;;1.63;;
74415;SDS011;62850;42.428;25.618;2022-11-11T16:52:29;4.43;;;1.40;;
74415;SDS011;62850;42.428;25.618;2022-11-11T16:55:03;4.60;;;2.10;;
74415;SDS011;62850;42.428;25.618;2022-11-11T16:57:30;4.95;;;2.03;;
74415;SDS011;62850;42.428;25.618;2022-11-11T16:59:59;2.70;;;1.10;;
74415;SDS011;62850;42.428;25.618;2022-11-11T17:02:27;2.83;;;1.00;;
74415;SDS011;62850;42.428;25.618;2022-11-11T17:04:54;2.50;;;1.05;;
74415;SDS011;62850;42.428;25.618;2022-11-11T17:10:16;2.53;;;1.05;;